createdAt,value
2022-09-22T00:01:00.074Z,1.48
2022-09-22T00:03:31.198Z,1.30
2022-09-22T00:06:01.465Z,1.17
2022-09-22T00:08:32.195Z,1.58
2022-09-22T00:11:01.990Z,1.30
2022-09-22T00:13:29.884Z,1.25
2022-09-22T00:15:57.999Z,1.20
2022-09-22T00:18:25.847Z,1.00
2022-09-22T00:20:53.869Z,1.10
2022-09-22T00:23:25.444Z,1.00
2022-09-22T00:25:54.558Z,1.40
2022-09-22T00:28:22.812Z,1.20
2022-09-22T00:30:50.668Z,1.00
2022-09-22T00:33:21.848Z,1.00
2022-09-22T00:35:57.993Z,1.27
2022-09-22T00:38:25.896Z,1.05
2022-09-22T00:41:00.219Z,0.93
2022-09-22T00:46:00.963Z,0.90
2022-09-22T00:48:32.674Z,0.90
2022-09-22T00:51:05.094Z,0.80
2022-09-22T00:53:33.444Z,0.77
2022-09-22T00:56:06.346Z,1.13
2022-09-22T00:58:38.245Z,1.15
2022-09-22T01:01:07.250Z,0.88
2022-09-22T01:03:37.901Z,1.02
2022-09-22T01:06:09.393Z,1.13
2022-09-22T01:08:38.510Z,0.88
2022-09-22T01:11:09.263Z,0.80
2022-09-22T01:13:44.965Z,0.75
2022-09-22T01:16:30.397Z,0.80
2022-09-22T01:19:17.430Z,0.63
2022-09-22T01:21:52.139Z,1.30
2022-09-22T01:24:55.063Z,1.00
2022-09-22T01:27:50.277Z,1.20
2022-09-22T01:30:22.318Z,1.42
2022-09-22T01:33:00.671Z,0.95
2022-09-22T01:35:33.328Z,1.20
2022-09-22T01:38:11.417Z,0.90
2022-09-22T01:40:48.883Z,0.80
2022-09-22T01:43:27.882Z,1.00
2022-09-22T01:45:57.058Z,0.80
2022-09-22T01:48:28.742Z,0.88
2022-09-22T01:51:01.625Z,0.70
2022-09-22T01:53:34.648Z,0.50
2022-09-22T01:56:07.906Z,0.50
2022-09-22T01:58:40.436Z,0.60
2022-09-22T02:01:14.914Z,0.60
2022-09-22T02:03:47.870Z,0.50
2022-09-22T02:06:22.527Z,0.65
2022-09-22T02:08:55.984Z,0.70
2022-09-22T02:11:24.901Z,0.60
2022-09-22T02:13:53.550Z,0.65
2022-09-22T02:16:24.867Z,0.55
2022-09-22T02:18:57.019Z,0.65
2022-09-22T02:21:27.835Z,0.75
2022-09-22T02:23:56.458Z,0.40
2022-09-22T02:26:27.030Z,0.50
2022-09-22T02:28:59.601Z,1.13
2022-09-22T02:31:33.291Z,1.10
2022-09-22T02:34:02.610Z,1.05
2022-09-22T02:36:51.778Z,1.10
2022-09-22T02:39:25.292Z,0.88
2022-09-22T02:42:16.638Z,0.60
2022-09-22T02:44:51.264Z,0.90
2022-09-22T02:47:24.615Z,0.73
2022-09-22T02:49:53.569Z,0.80
2022-09-22T02:52:25.257Z,0.80
2022-09-22T02:54:54.416Z,0.95
2022-09-22T02:57:22.924Z,1.05
2022-09-22T02:59:50.793Z,0.77
2022-09-22T03:02:22.936Z,0.73
2022-09-22T03:04:51.283Z,0.75
2022-09-22T03:07:20.747Z,1.00
2022-09-22T03:09:48.566Z,0.73
2022-09-22T03:12:16.449Z,1.13
2022-09-22T03:14:44.974Z,0.70
2022-09-22T03:17:20.192Z,0.57
2022-09-22T03:19:49.382Z,0.50
2022-09-22T03:22:17.574Z,1.05
2022-09-22T03:24:59.275Z,0.70
2022-09-22T03:27:27.599Z,0.70
2022-09-22T03:29:55.784Z,1.17
2022-09-22T03:32:24.068Z,0.52
2022-09-22T03:34:53.314Z,0.68
2022-09-22T03:37:21.099Z,0.50
2022-09-22T03:39:48.986Z,0.73
2022-09-22T03:42:25.980Z,0.95
2022-09-22T03:44:53.803Z,0.70
2022-09-22T03:47:31.027Z,0.75
2022-09-22T03:50:04.246Z,0.50
2022-09-22T03:52:33.447Z,0.50
2022-09-22T03:55:02.918Z,0.75
2022-09-22T03:57:31.078Z,0.68
2022-09-22T03:59:59.029Z,0.90
2022-09-22T04:02:27.263Z,0.70
2022-09-22T04:04:55.033Z,0.50
2022-09-22T04:07:24.462Z,0.57
2022-09-22T04:09:52.478Z,0.70
2022-09-22T04:12:23.095Z,0.50
2022-09-22T04:14:50.877Z,0.50
2022-09-22T04:17:20.576Z,0.50
2022-09-22T04:19:48.614Z,0.63
2022-09-22T04:22:18.657Z,0.60
2022-09-22T04:24:50.922Z,0.80
2022-09-22T04:27:20.595Z,0.73
2022-09-22T04:29:52.061Z,0.60
2022-09-22T04:32:22.519Z,0.63
2022-09-22T04:34:51.019Z,0.73
2022-09-22T04:37:18.807Z,0.70
2022-09-22T04:39:55.546Z,0.77
2022-09-22T04:42:23.839Z,0.52
2022-09-22T04:44:51.681Z,0.68
2022-09-22T04:47:19.656Z,0.82
2022-09-22T04:49:47.629Z,0.60
2022-09-22T04:52:17.820Z,0.70
2022-09-22T04:54:45.787Z,0.70
2022-09-22T04:57:18.408Z,0.52
2022-09-22T04:59:48.917Z,0.50
2022-09-22T05:02:16.878Z,0.60
2022-09-22T05:04:44.736Z,0.40
2022-09-22T05:07:12.603Z,0.63
2022-09-22T05:09:40.502Z,0.70
2022-09-22T05:12:11.242Z,0.47
2022-09-22T05:14:40.800Z,0.43
2022-09-22T05:17:08.639Z,0.50
2022-09-22T05:19:43.978Z,0.70
2022-09-22T05:22:11.858Z,0.40
2022-09-22T05:24:42.467Z,0.55
2022-09-22T05:27:10.383Z,0.93
2022-09-22T05:29:38.566Z,0.70
2022-09-22T05:32:07.910Z,0.90
2022-09-22T05:34:35.795Z,0.70
2022-09-22T05:37:03.587Z,0.90
2022-09-22T05:39:31.422Z,1.02
2022-09-22T05:42:02.361Z,0.73
2022-09-22T05:44:30.230Z,0.70
2022-09-22T05:46:58.194Z,0.80
2022-09-22T05:49:33.713Z,0.93
2022-09-22T05:52:02.478Z,0.80
2022-09-22T05:54:30.452Z,0.77
2022-09-22T05:56:58.403Z,0.50
2022-09-22T05:59:32.531Z,0.60
2022-09-22T06:04:49.229Z,0.60
2022-09-22T06:07:20.213Z,1.08
2022-09-22T06:09:48.485Z,0.60
2022-09-22T06:12:18.655Z,0.88
2022-09-22T06:14:46.915Z,0.43
2022-09-22T06:17:17.774Z,0.98
2022-09-22T06:19:49.852Z,0.73
2022-09-22T06:22:18.516Z,0.70
2022-09-22T06:24:46.429Z,0.60
2022-09-22T06:27:23.499Z,0.82
2022-09-22T06:29:51.343Z,0.60
2022-09-22T06:32:19.391Z,0.55
2022-09-22T06:34:48.563Z,0.80
2022-09-22T06:37:16.869Z,0.60
2022-09-22T06:39:49.171Z,0.50
2022-09-22T06:42:24.963Z,0.80
2022-09-22T06:44:53.718Z,1.05
2022-09-22T06:47:21.484Z,0.95
2022-09-22T06:49:50.730Z,1.05
2022-09-22T06:52:18.421Z,1.40
2022-09-22T06:54:46.184Z,1.38
2022-09-22T06:57:17.582Z,0.90
2022-09-22T06:59:48.362Z,0.90
2022-09-22T07:02:17.054Z,0.50
2022-09-22T07:04:55.771Z,0.60
2022-09-22T07:07:27.081Z,0.50
2022-09-22T07:09:55.298Z,0.47
2022-09-22T07:12:25.211Z,0.70
2022-09-22T07:14:57.273Z,0.80
2022-09-22T07:17:29.790Z,0.82
2022-09-22T07:20:02.195Z,0.80
2022-09-22T07:22:29.959Z,0.40
2022-09-22T07:25:02.328Z,0.50
2022-09-22T07:27:30.110Z,0.60
2022-09-22T07:30:00.104Z,0.73
2022-09-22T07:32:32.387Z,0.50
2022-09-22T07:35:04.665Z,0.57
2022-09-22T07:37:35.975Z,0.50
2022-09-22T07:40:10.311Z,0.60
2022-09-22T07:42:38.126Z,0.30
2022-09-22T07:45:13.888Z,0.52
2022-09-22T07:48:01.145Z,0.35
2022-09-22T07:50:30.873Z,0.52
2022-09-22T07:52:58.891Z,0.40
2022-09-22T07:55:26.779Z,0.75
2022-09-22T07:57:56.217Z,0.40
2022-09-22T08:00:24.832Z,0.45
2022-09-22T08:02:55.958Z,0.70
2022-09-22T08:05:24.968Z,0.85
2022-09-22T08:07:57.147Z,0.38
2022-09-22T08:10:26.269Z,0.50
2022-09-22T08:12:54.833Z,0.30
2022-09-22T08:15:28.936Z,0.30
2022-09-22T08:17:58.080Z,0.50
2022-09-22T08:20:28.935Z,0.38
2022-09-22T08:23:01.472Z,0.40
2022-09-22T08:25:30.363Z,0.40
2022-09-22T08:28:00.216Z,0.30
2022-09-22T08:30:28.051Z,0.50
2022-09-22T08:32:56.112Z,0.52
2022-09-22T08:35:24.241Z,0.60
2022-09-22T08:37:52.859Z,0.63
2022-09-22T08:40:24.057Z,0.43
2022-09-22T08:42:54.451Z,0.40
2022-09-22T08:45:33.119Z,0.40
2022-09-22T08:48:30.247Z,0.52
2022-09-22T08:51:27.500Z,0.73
2022-09-22T08:54:00.911Z,0.47
2022-09-22T08:56:43.421Z,0.40
2022-09-22T08:59:23.455Z,0.40
2022-09-22T09:02:04.987Z,0.40
2022-09-22T09:05:04.852Z,0.38
2022-09-22T09:07:58.077Z,0.50
2022-09-22T09:10:48.765Z,0.50
2022-09-22T09:13:59.925Z,0.55
2022-09-22T09:16:44.345Z,0.40
2022-09-22T09:19:20.055Z,0.47
2022-09-22T09:22:25.013Z,0.40
2022-09-22T09:27:50.359Z,0.30
2022-09-22T09:30:24.888Z,0.52
2022-09-22T09:32:56.502Z,0.43
2022-09-22T09:35:28.985Z,0.20
2022-09-22T09:37:59.200Z,0.40
2022-09-22T09:40:30.293Z,0.38
2022-09-22T09:43:03.599Z,0.40
2022-09-22T09:45:38.453Z,0.70
2022-09-22T09:48:27.249Z,0.20
2022-09-22T09:51:03.511Z,0.57
2022-09-22T09:53:33.471Z,0.45
2022-09-22T09:56:24.208Z,0.47
2022-09-22T09:59:17.110Z,0.20
2022-09-22T10:02:00.023Z,0.57
2022-09-22T10:04:33.842Z,0.30
2022-09-22T10:07:17.172Z,0.63
2022-09-22T10:09:48.270Z,0.65
2022-09-22T10:12:26.262Z,0.20
2022-09-22T10:14:56.057Z,0.30
2022-09-22T10:17:29.415Z,0.35
2022-09-22T10:20:21.520Z,0.40
2022-09-22T10:22:54.242Z,0.47
2022-09-22T10:25:27.268Z,0.40
2022-09-22T10:28:04.537Z,0.20
2022-09-22T10:30:37.717Z,0.25
2022-09-22T10:33:16.255Z,0.40
2022-09-22T10:35:47.847Z,0.20
2022-09-22T10:38:21.485Z,0.47
2022-09-22T10:40:56.368Z,0.65
2022-09-22T10:43:37.024Z,0.30
2022-09-22T10:46:43.072Z,0.17
2022-09-22T10:49:28.868Z,0.30
2022-09-22T10:52:09.842Z,0.43
2022-09-22T10:55:10.670Z,0.40
2022-09-22T10:58:13.395Z,0.10
2022-09-22T11:00:43.452Z,0.32
2022-09-22T11:03:47.065Z,0.10
2022-09-22T11:09:56.460Z,0.47
2022-09-22T11:12:43.799Z,0.40
2022-09-22T11:15:26.982Z,0.20
2022-09-22T11:18:15.502Z,0.25
2022-09-22T11:20:46.221Z,0.28
2022-09-22T11:23:53.637Z,0.20
2022-09-22T11:26:48.114Z,0.40
2022-09-22T11:29:59.603Z,0.17
2022-09-22T11:33:03.285Z,0.15
2022-09-22T11:35:51.078Z,0.30
2022-09-22T11:38:40.815Z,0.35
2022-09-22T11:41:34.786Z,0.40
2022-09-22T11:44:24.045Z,0.43
2022-09-22T11:47:48.882Z,0.28
2022-09-22T11:50:48.687Z,0.50
2022-09-22T11:53:48.801Z,0.35
2022-09-22T11:56:43.580Z,0.10
2022-09-22T11:59:18.298Z,0.10
2022-09-22T12:01:49.560Z,0.20
2022-09-22T12:04:24.799Z,0.30
2022-09-22T12:06:56.966Z,0.40
2022-09-22T12:12:34.303Z,0.10
2022-09-22T12:15:17.202Z,0.45
2022-09-22T12:17:56.952Z,0.63
2022-09-22T12:20:37.501Z,0.45
2022-09-22T12:23:31.129Z,0.22
2022-09-22T12:26:05.092Z,0.25
2022-09-22T12:28:38.797Z,0.17
2022-09-22T12:31:12.695Z,0.20
2022-09-22T12:36:30.985Z,0.32
2022-09-22T12:39:18.157Z,0.20
2022-09-22T12:41:49.706Z,0.20
2022-09-22T12:44:22.102Z,0.20
2022-09-22T12:46:51.024Z,0.20
2022-09-22T12:49:23.757Z,0.25
2022-09-22T12:51:52.427Z,0.22
2022-09-22T12:54:45.724Z,0.20
2022-09-22T12:57:28.771Z,0.40
2022-09-22T12:59:59.831Z,0.20
2022-09-22T13:02:30.928Z,0.30
2022-09-22T13:05:46.416Z,0.25
2022-09-22T13:08:47.569Z,0.10
2022-09-22T13:11:15.569Z,0.45
2022-09-22T13:13:46.782Z,0.47
2022-09-22T13:16:36.373Z,0.17
2022-09-22T13:19:09.842Z,0.10
2022-09-22T13:21:41.804Z,0.43
2022-09-22T13:24:26.577Z,0.28
2022-09-22T13:27:06.257Z,0.50
2022-09-22T13:29:36.421Z,0.40
2022-09-22T13:32:26.611Z,0.20
2022-09-22T13:34:56.853Z,0.30
2022-09-22T13:37:25.870Z,0.20
2022-09-22T13:39:59.394Z,0.17
2022-09-22T13:42:33.018Z,0.20
2022-09-22T13:45:28.131Z,0.22
2022-09-22T13:48:02.687Z,0.20
2022-09-22T13:50:33.316Z,0.20
2022-09-22T13:53:15.433Z,0.20
2022-09-22T13:55:46.691Z,0.20
2022-09-22T13:58:34.455Z,0.20
2022-09-22T14:01:13.896Z,0.20
2022-09-22T14:03:43.129Z,0.30
2022-09-22T14:06:16.180Z,0.17
2022-09-22T14:08:55.076Z,0.25
2022-09-22T14:11:25.773Z,0.20
2022-09-22T14:14:06.828Z,0.20
2022-09-22T14:16:43.948Z,0.20
2022-09-22T14:19:18.023Z,0.15
2022-09-22T14:21:51.350Z,0.15
2022-09-22T14:24:19.948Z,0.15
2022-09-22T14:26:50.768Z,0.20
2022-09-22T14:29:26.141Z,0.17
2022-09-22T14:32:13.164Z,0.13
2022-09-22T14:34:48.444Z,0.17
2022-09-22T14:37:23.440Z,0.20
2022-09-22T14:39:56.935Z,0.20
2022-09-22T14:42:29.426Z,0.10
2022-09-22T14:45:18.485Z,0.10
2022-09-22T14:47:48.307Z,0.40
2022-09-22T14:50:20.054Z,0.10
2022-09-22T14:53:02.039Z,0.10
2022-09-22T14:55:35.871Z,0.28
2022-09-22T14:58:07.367Z,0.35
2022-09-22T15:00:54.307Z,0.10
2022-09-22T15:03:29.164Z,0.20
2022-09-22T15:06:07.693Z,0.28
2022-09-22T15:08:36.261Z,0.00
2022-09-22T15:11:04.480Z,0.30
2022-09-22T15:13:39.877Z,0.20
2022-09-22T15:16:23.480Z,0.55
2022-09-22T15:18:53.036Z,0.20
2022-09-22T15:21:49.832Z,0.30
2022-09-22T15:24:26.794Z,0.30
2022-09-22T15:27:00.835Z,0.20
2022-09-22T15:29:32.342Z,0.20
2022-09-22T15:32:04.182Z,0.10
2022-09-22T15:34:33.650Z,0.10
2022-09-22T15:37:01.493Z,0.20
2022-09-22T15:39:29.600Z,0.20
2022-09-22T15:42:00.760Z,0.10
2022-09-22T15:44:28.704Z,0.10
2022-09-22T15:47:01.176Z,0.40
2022-09-22T15:49:31.924Z,0.20
2022-09-22T15:52:15.241Z,0.30
2022-09-22T15:54:45.784Z,0.20
2022-09-22T15:57:17.130Z,0.03
2022-09-22T15:59:46.011Z,0.30
2022-09-22T16:02:32.432Z,0.30
2022-09-22T16:05:26.484Z,0.57
2022-09-22T16:07:56.865Z,0.20
2022-09-22T16:10:27.808Z,0.10
2022-09-22T16:13:12.944Z,0.30
2022-09-22T16:15:41.565Z,0.20
2022-09-22T16:18:10.139Z,0.17
2022-09-22T16:20:40.943Z,0.20
2022-09-22T16:23:10.999Z,0.10
2022-09-22T16:25:39.198Z,0.30
2022-09-22T16:28:07.470Z,0.25
2022-09-22T16:30:38.592Z,0.30
2022-09-22T16:33:06.778Z,0.20
2022-09-22T16:35:34.743Z,0.22
2022-09-22T16:38:07.924Z,0.25
2022-09-22T16:40:39.739Z,0.22
2022-09-22T16:43:11.024Z,0.22
2022-09-22T16:46:02.938Z,0.10
2022-09-22T16:48:36.080Z,0.50
2022-09-22T16:51:09.129Z,0.30
2022-09-22T16:53:37.167Z,0.30
2022-09-22T16:56:06.817Z,0.20
2022-09-22T16:58:34.784Z,0.30
2022-09-22T17:01:06.283Z,0.25
2022-09-22T17:03:39.138Z,0.30
2022-09-22T17:06:09.152Z,0.47
2022-09-22T17:08:38.701Z,0.38
2022-09-22T17:11:08.859Z,0.22
2022-09-22T17:13:37.859Z,0.30
2022-09-22T17:16:30.255Z,0.40
2022-09-22T17:19:02.274Z,0.30
2022-09-22T17:21:35.559Z,0.20
2022-09-22T17:24:09.316Z,0.47
2022-09-22T17:26:41.749Z,0.30
2022-09-22T17:29:13.340Z,0.70
2022-09-22T17:31:41.378Z,0.30
2022-09-22T17:34:10.234Z,0.47
2022-09-22T17:36:38.902Z,0.30
2022-09-22T17:39:13.480Z,0.32
2022-09-22T17:41:47.054Z,0.43
2022-09-22T17:44:21.571Z,0.30
2022-09-22T17:47:09.842Z,0.30
2022-09-22T17:49:58.493Z,0.50
2022-09-22T17:52:44.479Z,0.50
2022-09-22T17:55:21.039Z,0.43
2022-09-22T17:58:02.224Z,0.50
2022-09-22T18:00:36.145Z,0.47
2022-09-22T18:03:04.836Z,0.82
2022-09-22T18:05:41.814Z,0.60
2022-09-22T18:08:44.508Z,0.30
2022-09-22T18:11:21.046Z,0.40
2022-09-22T18:13:56.184Z,0.52
2022-09-22T18:16:30.194Z,0.30
2022-09-22T18:18:58.362Z,0.40
2022-09-22T18:21:26.845Z,0.50
2022-09-22T18:23:59.222Z,0.55
2022-09-22T18:29:21.053Z,0.63
2022-09-22T18:31:50.033Z,0.60
2022-09-22T18:34:20.690Z,0.60
2022-09-22T18:36:48.865Z,0.63
2022-09-22T18:39:17.345Z,0.57
2022-09-22T18:41:54.874Z,0.60
2022-09-22T18:44:29.059Z,1.02
2022-09-22T18:49:44.296Z,0.60
2022-09-22T18:52:26.305Z,0.65
2022-09-22T18:54:54.914Z,0.60
2022-09-22T18:57:24.454Z,0.60
2022-09-22T19:00:06.904Z,0.65
2022-09-22T19:02:39.401Z,0.40
2022-09-22T19:05:13.546Z,0.60
2022-09-22T19:07:44.216Z,0.65
2022-09-22T19:10:14.309Z,0.50
2022-09-22T19:12:43.128Z,0.90
2022-09-22T19:15:15.455Z,0.90
2022-09-22T19:17:44.792Z,0.88
2022-09-22T19:20:23.861Z,0.90
2022-09-22T19:22:52.750Z,0.63
2022-09-22T19:25:27.776Z,1.38
2022-09-22T19:27:56.258Z,0.93
2022-09-22T19:30:39.741Z,0.70
2022-09-22T19:33:10.185Z,0.80
2022-09-22T19:35:39.487Z,0.60
2022-09-22T19:38:12.291Z,0.90
2022-09-22T19:40:40.344Z,0.77
2022-09-22T19:43:08.255Z,0.90
2022-09-22T19:45:38.104Z,1.00
2022-09-22T19:48:09.918Z,0.75
2022-09-22T19:50:42.489Z,0.70
2022-09-22T19:53:13.044Z,0.70
2022-09-22T19:55:40.917Z,0.82
2022-09-22T19:58:08.884Z,0.70
2022-09-22T20:00:43.724Z,0.90
2022-09-22T20:03:15.469Z,0.65
2022-09-22T20:05:43.414Z,1.05
2022-09-22T20:08:15.617Z,0.60
2022-09-22T20:10:43.863Z,1.10
2022-09-22T20:13:32.097Z,0.90
2022-09-22T20:16:01.840Z,1.00
2022-09-22T20:18:31.694Z,0.70
2022-09-22T20:21:02.697Z,0.70
2022-09-22T20:23:30.558Z,0.60
2022-09-22T20:25:58.410Z,0.85
2022-09-22T20:28:26.454Z,0.75
2022-09-22T20:30:54.475Z,0.98
2022-09-22T20:33:26.813Z,0.85
2022-09-22T20:35:58.895Z,0.65
2022-09-22T20:38:33.220Z,0.60
2022-09-22T20:41:04.525Z,0.45
2022-09-22T20:43:32.363Z,0.60
2022-09-22T20:46:01.959Z,0.70
2022-09-22T20:48:33.181Z,1.00
2022-09-22T20:51:02.806Z,0.68
2022-09-22T20:53:33.543Z,0.88
2022-09-22T20:56:02.288Z,1.08
2022-09-22T20:58:32.360Z,0.60
2022-09-22T21:01:00.657Z,0.70
2022-09-22T21:03:28.681Z,0.73
2022-09-22T21:06:01.727Z,0.80
2022-09-22T21:08:50.633Z,0.60
2022-09-22T21:11:20.634Z,0.65
2022-09-22T21:14:01.439Z,0.82
2022-09-22T21:16:29.881Z,0.80
2022-09-22T21:19:02.112Z,0.70
2022-09-22T21:21:33.480Z,0.60
2022-09-22T21:24:02.245Z,0.65
2022-09-22T21:26:31.221Z,0.77
2022-09-22T21:28:59.520Z,0.60
2022-09-22T21:31:28.440Z,0.80
2022-09-22T21:33:56.491Z,0.63
2022-09-22T21:36:25.439Z,0.80
2022-09-22T21:38:58.347Z,0.63
2022-09-22T21:41:31.287Z,0.70
2022-09-22T21:43:59.967Z,0.63
2022-09-22T21:46:30.013Z,0.85
2022-09-22T21:48:59.217Z,1.25
2022-09-22T21:51:27.507Z,1.08
2022-09-22T21:53:59.891Z,1.05
2022-09-22T21:56:30.000Z,0.60
2022-09-22T21:58:58.329Z,0.80
2022-09-22T22:01:28.047Z,0.82
2022-09-22T22:03:57.438Z,0.50
2022-09-22T22:06:27.280Z,0.40
2022-09-22T22:09:01.372Z,0.70
2022-09-22T22:11:34.817Z,0.70
2022-09-22T22:14:07.430Z,0.88
2022-09-22T22:16:37.454Z,0.50
2022-09-22T22:19:06.307Z,0.95
2022-09-22T22:21:34.871Z,0.80
2022-09-22T22:24:31.734Z,1.10
2022-09-22T22:27:05.789Z,0.73
2022-09-22T22:29:35.246Z,0.70
2022-09-22T22:32:12.126Z,0.75
2022-09-22T22:34:39.874Z,0.80
2022-09-22T22:37:10.939Z,0.88
2022-09-22T22:39:38.846Z,1.00
2022-09-22T22:42:08.592Z,1.10
2022-09-22T22:44:36.441Z,0.80
2022-09-22T22:47:12.235Z,0.98
2022-09-22T22:49:43.013Z,0.90
2022-09-22T22:52:10.746Z,0.82
2022-09-22T22:54:39.597Z,0.60
2022-09-22T22:57:08.869Z,0.60
2022-09-22T22:59:36.654Z,0.73
2022-09-22T23:02:04.472Z,0.63
2022-09-22T23:04:35.681Z,0.93
2022-09-22T23:07:03.528Z,0.65
2022-09-22T23:09:31.316Z,0.95
2022-09-22T23:12:02.543Z,0.70
2022-09-22T23:14:31.706Z,0.60
2022-09-22T23:17:07.644Z,1.30
2022-09-22T23:19:37.757Z,1.02
2022-09-22T23:22:08.777Z,1.00
2022-09-22T23:24:36.652Z,1.23
2022-09-22T23:27:04.710Z,1.20
2022-09-22T23:29:34.306Z,1.02
2022-09-22T23:32:02.407Z,0.80
2022-09-22T23:34:30.239Z,0.80
2022-09-22T23:36:58.246Z,0.90
2022-09-22T23:39:28.682Z,1.08
2022-09-22T23:41:56.452Z,0.90
2022-09-22T23:44:24.223Z,1.00
2022-09-22T23:46:53.687Z,0.80
2022-09-22T23:49:21.574Z,0.70
2022-09-22T23:51:51.362Z,0.80
2022-09-22T23:54:28.078Z,0.70
2022-09-22T23:56:56.606Z,0.85
2022-09-22T23:59:24.402Z,1.13
